South Pasadena, Florida
Current Conditions -  °F | °C
As of 4:53 PM on Thursday 27 Nov 2014 (Local Time) from KSPG Reporting Station
Clear Clear  
Wind Chill: 62°   Ceiling: Unl
Heat Index: 62°   Visibility: 10mi
Dew Point: 42°   Wind: 15mph
Humidity: 48%   Direction: 340°NNW
Pressure: 30.2"   Gusts: 22mph
Location:  27.7562°N, 82.7184°W
Report Text: KSPG 272153Z AUTO 34013G19KT 10SM CLR 17/06 A3020 RMK AO2 SLP227 T01670056
Loading
Personal Weather Stations






























Interactive Weather Map New forecast layout! Learn more

10-Day Weather Forecast

Advertisements
Track Severe Weather on mobile